createdAt,value
2023-04-16T04:34:29.071Z,786.72
2023-04-16T04:36:55.770Z,786.97
2023-04-16T04:39:22.620Z,788.75
2023-04-16T04:41:49.305Z,781.25
2023-04-16T04:44:15.914Z,781.00
2023-04-16T04:46:42.654Z,789.67
2023-04-16T04:49:09.528Z,789.08
2023-04-16T04:51:36.466Z,792.92
2023-04-16T04:54:03.116Z,784.08
2023-04-16T04:56:29.792Z,788.35
2023-04-16T04:58:56.573Z,796.00
2023-04-16T05:01:23.305Z,787.53
2023-04-16T05:03:50.204Z,794.83
2023-04-16T05:06:17.202Z,795.97
2023-04-16T05:08:43.976Z,795.95
2023-04-16T05:11:10.746Z,802.85
2023-04-16T05:13:37.564Z,796.97
2023-04-16T05:16:04.687Z,791.33
2023-04-16T05:18:32.758Z,798.23
2023-04-16T05:20:59.508Z,795.83
2023-04-16T05:23:26.277Z,795.60
2023-04-16T05:25:52.933Z,800.33
2023-04-16T05:28:19.641Z,799.15
2023-04-16T05:30:46.418Z,800.10
2023-04-16T05:33:13.245Z,803.00
2023-04-16T05:35:39.970Z,804.03
2023-04-16T05:38:06.666Z,793.97
2023-04-16T05:40:33.419Z,792.55
2023-04-16T05:43:00.292Z,800.45
2023-04-16T05:45:28.133Z,807.85
2023-04-16T05:47:55.183Z,797.95
2023-04-16T05:50:21.924Z,801.72
2023-04-16T05:52:48.612Z,801.13
2023-04-16T05:55:15.388Z,807.40
2023-04-16T05:57:42.217Z,802.97
2023-04-16T06:00:09.275Z,819.70
2023-04-16T06:02:36.330Z,803.40
2023-04-16T06:05:03.233Z,810.65
2023-04-16T06:07:30.536Z,809.67
2023-04-16T06:09:57.238Z,810.08
2023-04-16T06:12:24.029Z,804.83
2023-04-16T06:14:51.046Z,806.42
2023-04-16T06:17:17.883Z,808.65
2023-04-16T06:19:46.382Z,802.85
2023-04-16T06:22:13.236Z,804.17
2023-04-16T06:24:40.182Z,819.38
2023-04-16T06:27:06.954Z,803.95
2023-04-16T06:29:40.331Z,813.15
2023-04-16T06:32:08.565Z,808.22
2023-04-16T06:34:35.390Z,809.15
2023-04-16T06:37:02.132Z,800.85
2023-04-16T06:39:28.957Z,813.28
2023-04-16T06:41:56.043Z,807.95
2023-04-16T06:44:22.914Z,809.25
2023-04-16T06:46:51.173Z,800.50
2023-04-16T06:49:17.943Z,798.30
2023-04-16T06:51:44.778Z,797.95
2023-04-16T06:54:11.572Z,799.92
2023-04-16T06:56:38.540Z,806.83
2023-04-16T06:59:05.525Z,807.20
2023-04-16T07:01:32.604Z,809.00
2023-04-16T07:03:59.932Z,802.85
2023-04-16T07:06:27.212Z,809.70
2023-04-16T07:08:54.120Z,813.53
2023-04-16T07:11:21.153Z,817.70
2023-04-16T07:13:47.953Z,812.50
2023-04-16T07:16:15.294Z,824.70
2023-04-16T07:18:42.837Z,817.05
2023-04-16T07:21:11.255Z,812.70
2023-04-16T07:23:39.155Z,815.67
2023-04-16T07:26:13.408Z,820.83
2023-04-16T07:28:40.196Z,815.30
2023-04-16T07:31:06.994Z,823.00
2023-04-16T07:33:33.943Z,819.53
2023-04-16T07:36:00.778Z,821.40
2023-04-16T07:38:27.543Z,822.45
2023-04-16T07:40:55.878Z,815.88
2023-04-16T07:43:22.618Z,813.35
2023-04-16T07:45:49.259Z,812.28
2023-04-16T07:48:16.059Z,814.05
2023-04-16T07:50:45.681Z,814.20
2023-04-16T07:53:12.491Z,823.10
2023-04-16T07:55:39.189Z,835.08
2023-04-16T07:58:07.265Z,838.70
2023-04-16T08:00:34.189Z,845.75
2023-04-16T08:03:01.189Z,844.22
2023-04-16T08:05:28.124Z,830.38
2023-04-16T08:07:54.941Z,848.25
2023-04-16T08:10:24.400Z,843.83
2023-04-16T08:12:51.393Z,840.57
2023-04-16T08:15:18.520Z,836.58
2023-04-16T08:17:45.648Z,849.28
2023-04-16T08:20:15.663Z,846.05
2023-04-16T08:22:45.038Z,847.25
2023-04-16T08:25:12.134Z,845.47
2023-04-16T08:27:38.965Z,855.88
2023-04-16T08:30:06.357Z,840.85
2023-04-16T08:32:33.235Z,846.50
2023-04-16T08:35:00.253Z,845.45
2023-04-16T08:37:27.039Z,840.80
2023-04-16T08:39:53.764Z,843.42
2023-04-16T08:42:32.583Z,848.35
2023-04-16T08:45:18.441Z,853.53
2023-04-16T08:47:47.696Z,848.55
2023-04-16T08:50:24.262Z,844.15
2023-04-16T08:53:03.260Z,840.25
2023-04-16T08:55:38.895Z,840.40
2023-04-16T08:58:18.597Z,842.17
2023-04-16T09:00:46.437Z,837.30
2023-04-16T09:03:13.571Z,843.95
2023-04-16T09:05:42.539Z,848.00
2023-04-16T09:08:09.387Z,844.42
2023-04-16T09:10:36.129Z,844.58
2023-04-16T09:13:02.902Z,845.70
2023-04-16T09:15:30.059Z,846.50
2023-04-16T09:17:57.666Z,848.03
2023-04-16T09:20:24.695Z,853.33
2023-04-16T09:22:51.569Z,858.67
2023-04-16T09:25:22.421Z,861.38
2023-04-16T09:27:52.631Z,857.03
2023-04-16T09:30:24.027Z,851.00
2023-04-16T09:32:52.193Z,852.63
2023-04-16T09:35:19.959Z,856.92
2023-04-16T09:37:57.869Z,862.15
2023-04-16T09:40:26.837Z,867.07
2023-04-16T09:42:57.629Z,871.25
2023-04-16T09:45:24.459Z,867.50
2023-04-16T09:47:51.347Z,870.73
2023-04-16T09:50:20.162Z,874.97
2023-04-16T09:52:51.532Z,871.33
2023-04-16T09:55:23.832Z,876.22
2023-04-16T09:57:59.876Z,877.95
2023-04-16T10:00:26.697Z,885.22
2023-04-16T10:03:07.213Z,881.50
2023-04-16T10:05:34.654Z,880.40
2023-04-16T10:08:02.093Z,884.05
2023-04-16T10:10:29.691Z,877.22
2023-04-16T10:12:56.567Z,884.53
2023-04-16T10:15:23.559Z,882.92
2023-04-16T10:17:51.448Z,892.33
2023-04-16T10:20:18.942Z,888.03
2023-04-16T10:22:46.453Z,890.40
2023-04-16T10:25:13.419Z,887.95
2023-04-16T10:27:41.225Z,888.58
2023-04-16T10:30:09.457Z,895.72
2023-04-16T10:32:38.068Z,890.60
2023-04-16T10:35:05.711Z,888.78
2023-04-16T10:37:33.179Z,890.55
2023-04-16T10:40:00.044Z,892.22
2023-04-16T10:42:27.463Z,893.40
2023-04-16T10:44:54.117Z,893.35
2023-04-16T10:47:24.834Z,900.28
2023-04-16T10:49:52.122Z,893.78
2023-04-16T10:52:18.907Z,905.38
2023-04-16T10:54:47.938Z,909.03
2023-04-16T10:57:19.739Z,897.63
2023-04-16T10:59:49.037Z,898.90
2023-04-16T11:02:18.547Z,899.30
2023-04-16T11:04:47.404Z,902.75
2023-04-16T11:07:21.394Z,900.78
2023-04-16T11:09:51.218Z,907.10
2023-04-16T11:12:22.361Z,903.58
2023-04-16T11:14:51.711Z,910.67
2023-04-16T11:17:19.362Z,905.70
2023-04-16T11:19:46.844Z,913.30
2023-04-16T11:22:17.764Z,922.92
2023-04-16T11:24:47.821Z,924.28
2023-04-16T11:27:16.021Z,916.50
2023-04-16T11:29:43.492Z,927.90
2023-04-16T11:32:20.251Z,950.58
2023-04-16T11:34:47.180Z,947.60
2023-04-16T11:37:13.869Z,945.40
2023-04-16T11:39:53.323Z,942.17
2023-04-16T11:42:22.551Z,931.10
2023-04-16T11:44:54.460Z,941.00
2023-04-16T11:47:22.374Z,937.30
2023-04-16T11:49:49.301Z,926.03
2023-04-16T11:52:29.696Z,935.22
2023-04-16T11:54:57.443Z,938.80
2023-04-16T11:57:31.808Z,947.33
2023-04-16T12:00:02.358Z,940.42
2023-04-16T12:02:36.443Z,944.97
2023-04-16T12:05:04.600Z,946.30
2023-04-16T12:07:31.468Z,939.72
2023-04-16T12:10:09.174Z,946.88
2023-04-16T12:12:35.888Z,941.63
2023-04-16T12:15:03.892Z,955.95
2023-04-16T12:17:35.520Z,952.60
2023-04-16T12:20:13.564Z,952.40
2023-04-16T12:22:44.179Z,958.10
2023-04-16T12:25:13.988Z,961.33
2023-04-16T12:27:53.486Z,963.00
2023-04-16T12:30:22.844Z,961.45
2023-04-16T12:32:51.850Z,959.90
2023-04-16T12:35:32.532Z,962.50
2023-04-16T12:38:00.103Z,964.72
2023-04-16T12:40:27.382Z,959.08
2023-04-16T12:42:54.743Z,964.92
2023-04-16T12:45:21.919Z,966.92
2023-04-16T12:47:50.325Z,957.03
2023-04-16T12:50:17.672Z,965.92
2023-04-16T12:52:44.505Z,958.20
2023-04-16T12:55:12.432Z,946.15
2023-04-16T12:57:39.009Z,956.63
2023-04-16T13:00:06.661Z,953.47
2023-04-16T13:02:34.125Z,942.42
2023-04-16T13:05:01.393Z,951.60
2023-04-16T13:07:28.253Z,952.03
2023-04-16T13:09:54.895Z,939.67
2023-04-16T13:12:21.521Z,934.38
2023-04-16T13:14:48.135Z,927.97
2023-04-16T13:17:15.434Z,930.53
2023-04-16T13:19:42.031Z,940.90
2023-04-16T13:22:09.309Z,934.67
2023-04-16T13:24:36.124Z,911.58
2023-04-16T13:27:02.946Z,920.80
2023-04-16T13:29:30.738Z,913.60
2023-04-16T13:31:57.766Z,912.17
2023-04-16T13:34:24.449Z,911.88
2023-04-16T13:36:51.073Z,905.23
2023-04-16T13:39:18.268Z,902.37
2023-04-16T13:41:44.878Z,910.85
2023-04-16T13:44:11.509Z,907.43
2023-04-16T13:46:38.310Z,906.50
2023-04-16T13:49:05.052Z,899.53
2023-04-16T13:51:32.036Z,902.58
2023-04-16T13:53:58.729Z,905.03
2023-04-16T13:56:25.449Z,902.75
2023-04-16T13:58:52.285Z,887.88
2023-04-16T14:01:19.366Z,895.35
2023-04-16T14:03:46.475Z,900.75
2023-04-16T14:06:13.722Z,900.05
2023-04-16T14:08:40.594Z,901.28
2023-04-16T14:11:07.648Z,900.30
2023-04-16T14:13:34.513Z,900.83
2023-04-16T14:16:02.068Z,902.47
2023-04-16T14:18:28.713Z,904.97
2023-04-16T14:20:55.522Z,909.03
2023-04-16T14:23:22.137Z,902.45
2023-04-16T14:25:48.802Z,907.67
2023-04-16T14:28:16.001Z,909.97
2023-04-16T14:30:42.661Z,909.08
2023-04-16T14:33:09.553Z,911.33
2023-04-16T14:35:36.246Z,908.40
2023-04-16T14:38:02.968Z,907.22
2023-04-16T14:40:29.897Z,909.35
2023-04-16T14:42:56.500Z,908.80
2023-04-16T14:45:25.373Z,903.70
2023-04-16T14:47:52.103Z,905.65
2023-04-16T14:50:18.808Z,909.88
2023-04-16T14:52:45.549Z,895.92
2023-04-16T14:55:12.337Z,904.50
2023-04-16T14:57:39.208Z,904.20
2023-04-16T15:00:10.701Z,897.72
2023-04-16T15:02:37.928Z,901.60
2023-04-16T15:05:05.263Z,906.60
2023-04-16T15:07:32.502Z,904.17
2023-04-16T15:09:59.236Z,903.10
2023-04-16T15:12:26.469Z,898.38
2023-04-16T15:14:53.154Z,903.77
2023-04-16T15:17:20.379Z,905.60
2023-04-16T15:19:47.673Z,907.20
2023-04-16T15:22:14.824Z,906.83
2023-04-16T15:24:41.609Z,914.90
2023-04-16T15:27:11.615Z,903.47
2023-04-16T15:29:38.666Z,901.42
2023-04-16T15:32:06.848Z,901.77
2023-04-16T15:34:33.476Z,894.00
2023-04-16T15:37:00.309Z,898.40
2023-04-16T15:39:27.056Z,895.40
2023-04-16T15:42:01.143Z,893.63
2023-04-16T15:44:30.952Z,896.70
2023-04-16T15:46:57.608Z,894.08
2023-04-16T15:49:24.956Z,887.90
2023-04-16T15:51:52.402Z,891.78
2023-04-16T15:54:19.173Z,884.35
2023-04-16T15:56:46.609Z,890.05
2023-04-16T15:59:13.549Z,888.33
2023-04-16T16:01:40.647Z,886.00
2023-04-16T16:04:08.095Z,888.80
2023-04-16T16:06:35.335Z,892.88
2023-04-16T16:09:01.932Z,893.10
2023-04-16T16:11:28.541Z,883.22
2023-04-16T16:13:55.380Z,885.15
2023-04-16T16:16:22.215Z,880.72
2023-04-16T16:18:48.969Z,886.53
2023-04-16T16:21:16.092Z,881.60
2023-04-16T16:23:42.724Z,892.30
2023-04-16T16:26:09.423Z,883.58
2023-04-16T16:28:38.804Z,886.40
2023-04-16T16:31:06.820Z,882.38
2023-04-16T16:33:33.624Z,873.35
2023-04-16T16:36:00.565Z,885.40
2023-04-16T16:38:27.575Z,877.25
2023-04-16T16:40:54.175Z,874.53
2023-04-16T16:43:20.879Z,868.80
2023-04-16T16:45:47.558Z,880.00
2023-04-16T16:48:14.178Z,876.00
2023-04-16T16:50:40.855Z,884.53
2023-04-16T16:53:07.474Z,890.28
2023-04-16T16:55:35.426Z,881.10
2023-04-16T16:58:02.918Z,884.75
2023-04-16T17:00:29.583Z,886.10
2023-04-16T17:02:56.391Z,878.83
2023-04-16T17:05:23.354Z,883.17
2023-04-16T17:07:49.937Z,886.72
2023-04-16T17:10:20.768Z,875.33
2023-04-16T17:12:48.751Z,880.00
2023-04-16T17:15:16.644Z,886.22
2023-04-16T17:17:44.260Z,873.53
2023-04-16T17:20:12.344Z,887.30
2023-04-16T17:22:39.748Z,885.33
2023-04-16T17:25:07.754Z,877.92
2023-04-16T17:27:34.516Z,881.22
2023-04-16T17:30:02.324Z,885.50
2023-04-16T17:32:29.758Z,877.95
2023-04-16T17:34:56.672Z,887.03
2023-04-16T17:37:23.705Z,883.60
2023-04-16T17:39:51.409Z,886.13
2023-04-16T17:42:18.048Z,876.92
2023-04-16T17:44:44.837Z,884.25
2023-04-16T17:47:11.787Z,872.83
2023-04-16T17:49:38.387Z,880.03
2023-04-16T17:52:05.043Z,876.75
2023-04-16T17:54:31.647Z,883.28
2023-04-16T17:56:58.929Z,873.65
2023-04-16T17:59:25.664Z,876.90
2023-04-16T18:01:52.376Z,873.35
2023-04-16T18:04:19.563Z,876.70
2023-04-16T18:06:46.510Z,881.05
2023-04-16T18:09:14.224Z,882.00
2023-04-16T18:11:40.850Z,876.15
2023-04-16T18:14:09.771Z,876.30
2023-04-16T18:16:36.721Z,873.67
2023-04-16T18:19:03.382Z,871.58
2023-04-16T18:21:30.448Z,876.03
2023-04-16T18:23:57.620Z,873.50
2023-04-16T18:26:25.239Z,867.72
2023-04-16T18:28:52.421Z,872.22
2023-04-16T18:31:21.069Z,869.15
2023-04-16T18:33:56.871Z,872.78
2023-04-16T18:36:24.506Z,872.10
2023-04-16T18:39:01.054Z,871.90
2023-04-16T18:41:29.866Z,858.13
2023-04-16T18:43:56.856Z,855.47
2023-04-16T18:46:23.637Z,859.08
2023-04-16T18:48:50.377Z,859.45
2023-04-16T18:51:17.153Z,856.93
2023-04-16T18:53:45.520Z,860.42
2023-04-16T18:56:12.708Z,853.83
2023-04-16T18:58:39.382Z,853.60
2023-04-16T19:01:10.808Z,850.80
2023-04-16T19:03:38.276Z,845.83
2023-04-16T19:06:05.850Z,850.20
2023-04-16T19:08:32.470Z,852.95
2023-04-16T19:10:59.094Z,854.70
2023-04-16T19:13:25.873Z,843.23
2023-04-16T19:15:58.423Z,850.45
2023-04-16T19:18:25.293Z,848.30
2023-04-16T19:20:51.932Z,839.88
2023-04-16T19:23:19.156Z,848.88
2023-04-16T19:25:46.517Z,854.38
2023-04-16T19:28:13.187Z,854.50
2023-04-16T19:30:40.300Z,843.15
2023-04-16T19:33:06.994Z,853.37
2023-04-16T19:35:34.630Z,847.30
2023-04-16T19:38:01.305Z,853.03
2023-04-16T19:40:27.972Z,856.33
2023-04-16T19:42:54.904Z,842.92
2023-04-16T19:45:25.667Z,849.67
2023-04-16T19:47:52.492Z,849.10
2023-04-16T19:50:19.791Z,855.10
2023-04-16T19:52:46.493Z,849.85
2023-04-16T19:55:13.277Z,842.25
2023-04-16T19:57:39.925Z,854.22
2023-04-16T20:00:11.806Z,845.72
2023-04-16T20:02:38.673Z,844.40
2023-04-16T20:05:05.584Z,861.15
2023-04-16T20:07:32.310Z,843.47
2023-04-16T20:09:59.092Z,852.17
2023-04-16T20:12:25.881Z,849.25
2023-04-16T20:14:52.587Z,847.38
2023-04-16T20:17:19.991Z,841.92
2023-04-16T20:19:51.029Z,847.35
2023-04-16T20:22:18.626Z,840.33
2023-04-16T20:24:47.863Z,843.13
2023-04-16T20:27:15.159Z,846.83
2023-04-16T20:29:41.999Z,841.73
2023-04-16T20:32:08.725Z,849.80
2023-04-16T20:34:36.526Z,842.13
2023-04-16T20:37:06.340Z,845.42
2023-04-16T20:39:34.189Z,830.10
2023-04-16T20:42:04.234Z,854.10
2023-04-16T20:44:40.120Z,848.95
2023-04-16T20:47:11.611Z,847.10
2023-04-16T20:49:38.409Z,854.92
2023-04-16T20:52:05.615Z,854.05
2023-04-16T20:54:32.244Z,858.10
2023-04-16T20:56:59.115Z,849.03
2023-04-16T20:59:26.105Z,862.47
2023-04-16T21:01:52.847Z,867.95
2023-04-16T21:04:19.653Z,862.72
2023-04-16T21:06:46.681Z,858.40
2023-04-16T21:09:13.451Z,857.03
2023-04-16T21:11:40.329Z,857.45
2023-04-16T21:14:07.015Z,856.38
2023-04-16T21:16:33.732Z,861.38
2023-04-16T21:19:00.425Z,850.30
2023-04-16T21:21:27.463Z,857.53
2023-04-16T21:23:54.174Z,862.28
2023-04-16T21:26:20.884Z,848.97
2023-04-16T21:28:47.554Z,852.38
2023-04-16T21:31:14.229Z,859.17
2023-04-16T21:33:40.896Z,855.20
2023-04-16T21:36:07.789Z,849.50
2023-04-16T21:38:34.431Z,856.75
2023-04-16T21:41:01.872Z,860.17
2023-04-16T21:43:32.200Z,855.53
2023-04-16T21:45:59.512Z,848.20
2023-04-16T21:48:29.223Z,860.60
2023-04-16T21:51:06.007Z,850.30
2023-04-16T21:53:33.354Z,855.63
2023-04-16T21:55:59.967Z,861.85
2023-04-16T21:58:26.759Z,854.22
2023-04-16T22:00:53.892Z,853.90
2023-04-16T22:03:26.267Z,856.08
2023-04-16T22:06:02.850Z,857.72
2023-04-16T22:08:30.218Z,854.38
2023-04-16T22:11:01.951Z,864.85
2023-04-16T22:13:30.072Z,862.80
2023-04-16T22:15:57.705Z,861.88
2023-04-16T22:18:25.747Z,853.00
2023-04-16T22:20:55.695Z,862.88
2023-04-16T22:23:23.482Z,859.55
2023-04-16T22:25:50.499Z,862.17
2023-04-16T22:28:17.104Z,864.75
2023-04-16T22:30:43.752Z,853.30
2023-04-16T22:33:11.123Z,857.75
2023-04-16T22:35:37.790Z,868.97
2023-04-16T22:38:04.533Z,859.20
2023-04-16T22:40:31.952Z,863.22
2023-04-16T22:42:58.554Z,855.60
2023-04-16T22:45:25.739Z,863.65
2023-04-16T22:47:52.454Z,860.88
2023-04-16T22:50:19.337Z,849.70
2023-04-16T22:52:45.993Z,862.47
2023-04-16T22:55:12.653Z,849.00
2023-04-16T22:57:39.272Z,864.13
